sensor_id;sensor_type;location;lat;lon;timestamp;P1;durP1;ratioP1;P2;durP2;ratioP2
9563;SDS011;4820;50.870;4.702;2024-01-10T00:01:59;7.67;;;4.87;;
9563;SDS011;4820;50.870;4.702;2024-01-10T00:04:25;6.67;;;4.27;;
9563;SDS011;4820;50.870;4.702;2024-01-10T00:06:51;6.23;;;4.50;;
9563;SDS011;4820;50.870;4.702;2024-01-10T00:09:17;7.83;;;4.73;;
9563;SDS011;4820;50.870;4.702;2024-01-10T00:11:43;6.93;;;4.70;;
9563;SDS011;4820;50.870;4.702;2024-01-10T00:14:09;5.30;;;4.33;;
9563;SDS011;4820;50.870;4.702;2024-01-10T00:16:34;6.00;;;4.30;;
9563;SDS011;4820;50.870;4.702;2024-01-10T00:19:00;7.00;;;4.30;;
9563;SDS011;4820;50.870;4.702;2024-01-10T00:21:26;6.50;;;4.43;;
9563;SDS011;4820;50.870;4.702;2024-01-10T00:23:52;7.40;;;4.40;;
9563;SDS011;4820;50.870;4.702;2024-01-10T00:26:18;6.17;;;4.30;;
9563;SDS011;4820;50.870;4.702;2024-01-10T00:28:43;5.97;;;4.23;;
9563;SDS011;4820;50.870;4.702;2024-01-10T00:31:11;6.57;;;4.30;;
9563;SDS011;4820;50.870;4.702;2024-01-10T00:33:40;7.23;;;4.40;;
9563;SDS011;4820;50.870;4.702;2024-01-10T00:36:06;7.40;;;4.70;;
9563;SDS011;4820;50.870;4.702;2024-01-10T00:38:32;7.23;;;4.90;;
9563;SDS011;4820;50.870;4.702;2024-01-10T00:40:58;8.23;;;5.03;;
9563;SDS011;4820;50.870;4.702;2024-01-10T00:43:24;7.47;;;4.83;;
9563;SDS011;4820;50.870;4.702;2024-01-10T00:45:50;7.00;;;4.90;;
9563;SDS011;4820;50.870;4.702;2024-01-10T00:48:15;5.83;;;4.57;;
9563;SDS011;4820;50.870;4.702;2024-01-10T00:50:42;6.13;;;4.47;;
9563;SDS011;4820;50.870;4.702;2024-01-10T00:53:09;7.70;;;4.63;;
9563;SDS011;4820;50.870;4.702;2024-01-10T00:55:35;6.33;;;4.37;;
9563;SDS011;4820;50.870;4.702;2024-01-10T00:58:01;7.13;;;4.43;;
9563;SDS011;4820;50.870;4.702;2024-01-10T01:00:27;7.77;;;5.07;;
9563;SDS011;4820;50.870;4.702;2024-01-10T01:02:53;8.93;;;4.80;;
9563;SDS011;4820;50.870;4.702;2024-01-10T01:05:18;6.77;;;4.80;;
9563;SDS011;4820;50.870;4.702;2024-01-10T01:07:44;6.93;;;4.63;;
9563;SDS011;4820;50.870;4.702;2024-01-10T01:10:10;7.17;;;5.00;;
9563;SDS011;4820;50.870;4.702;2024-01-10T01:12:36;6.00;;;4.60;;
9563;SDS011;4820;50.870;4.702;2024-01-10T01:15:02;7.97;;;4.33;;
9563;SDS011;4820;50.870;4.702;2024-01-10T01:17:28;7.47;;;4.80;;
9563;SDS011;4820;50.870;4.702;2024-01-10T01:19:54;8.37;;;4.77;;
9563;SDS011;4820;50.870;4.702;2024-01-10T01:22:20;6.67;;;4.47;;
9563;SDS011;4820;50.870;4.702;2024-01-10T01:24:45;6.40;;;4.50;;
9563;SDS011;4820;50.870;4.702;2024-01-10T01:27:12;8.50;;;4.70;;
9563;SDS011;4820;50.870;4.702;2024-01-10T01:29:38;9.10;;;4.87;;
9563;SDS011;4820;50.870;4.702;2024-01-10T01:32:04;7.67;;;4.90;;
9563;SDS011;4820;50.870;4.702;2024-01-10T01:34:29;6.90;;;4.90;;
9563;SDS011;4820;50.870;4.702;2024-01-10T01:36:55;6.87;;;4.57;;
9563;SDS011;4820;50.870;4.702;2024-01-10T01:39:21;7.47;;;4.40;;
9563;SDS011;4820;50.870;4.702;2024-01-10T01:41:47;7.30;;;4.53;;
9563;SDS011;4820;50.870;4.702;2024-01-10T01:44:13;6.23;;;4.60;;
9563;SDS011;4820;50.870;4.702;2024-01-10T01:46:39;5.93;;;4.50;;
9563;SDS011;4820;50.870;4.702;2024-01-10T01:49:08;7.43;;;4.53;;
9563;SDS011;4820;50.870;4.702;2024-01-10T01:51:35;7.27;;;4.60;;
9563;SDS011;4820;50.870;4.702;2024-01-10T01:54:03;6.20;;;5.00;;
9563;SDS011;4820;50.870;4.702;2024-01-10T01:56:32;9.13;;;4.53;;
9563;SDS011;4820;50.870;4.702;2024-01-10T01:58:58;7.00;;;4.83;;
9563;SDS011;4820;50.870;4.702;2024-01-10T02:01:24;6.93;;;4.70;;
9563;SDS011;4820;50.870;4.702;2024-01-10T02:03:50;6.80;;;4.50;;
9563;SDS011;4820;50.870;4.702;2024-01-10T02:06:16;6.27;;;4.80;;
9563;SDS011;4820;50.870;4.702;2024-01-10T02:08:42;6.77;;;4.90;;
9563;SDS011;4820;50.870;4.702;2024-01-10T02:11:07;5.63;;;4.70;;
9563;SDS011;4820;50.870;4.702;2024-01-10T02:13:33;7.20;;;4.70;;
9563;SDS011;4820;50.870;4.702;2024-01-10T02:16:00;5.70;;;4.00;;
9563;SDS011;4820;50.870;4.702;2024-01-10T02:18:28;7.63;;;4.77;;
9563;SDS011;4820;50.870;4.702;2024-01-10T02:20:54;6.27;;;4.80;;
9563;SDS011;4820;50.870;4.702;2024-01-10T02:23:19;7.47;;;4.83;;
9563;SDS011;4820;50.870;4.702;2024-01-10T02:25:45;6.33;;;4.43;;
9563;SDS011;4820;50.870;4.702;2024-01-10T02:28:11;9.07;;;5.00;;
9563;SDS011;4820;50.870;4.702;2024-01-10T02:30:37;7.63;;;4.87;;
9563;SDS011;4820;50.870;4.702;2024-01-10T02:33:03;7.57;;;4.90;;
9563;SDS011;4820;50.870;4.702;2024-01-10T02:35:29;7.50;;;4.60;;
9563;SDS011;4820;50.870;4.702;2024-01-10T02:37:58;7.57;;;4.50;;
9563;SDS011;4820;50.870;4.702;2024-01-10T02:40:24;7.27;;;5.03;;
9563;SDS011;4820;50.870;4.702;2024-01-10T02:42:50;7.00;;;5.17;;
9563;SDS011;4820;50.870;4.702;2024-01-10T02:45:18;9.50;;;5.07;;
9563;SDS011;4820;50.870;4.702;2024-01-10T02:47:44;7.93;;;4.83;;
9563;SDS011;4820;50.870;4.702;2024-01-10T02:50:10;6.53;;;4.53;;
9563;SDS011;4820;50.870;4.702;2024-01-10T02:52:36;7.17;;;4.60;;
9563;SDS011;4820;50.870;4.702;2024-01-10T02:55:02;7.87;;;4.57;;
9563;SDS011;4820;50.870;4.702;2024-01-10T02:57:28;6.97;;;4.57;;
9563;SDS011;4820;50.870;4.702;2024-01-10T02:59:54;7.07;;;4.80;;
9563;SDS011;4820;50.870;4.702;2024-01-10T03:02:20;6.53;;;4.27;;
9563;SDS011;4820;50.870;4.702;2024-01-10T03:04:48;6.73;;;4.87;;
9563;SDS011;4820;50.870;4.702;2024-01-10T03:07:13;7.73;;;4.70;;
9563;SDS011;4820;50.870;4.702;2024-01-10T03:09:39;6.90;;;4.90;;
9563;SDS011;4820;50.870;4.702;2024-01-10T03:12:05;6.87;;;4.77;;
9563;SDS011;4820;50.870;4.702;2024-01-10T03:14:31;6.40;;;4.47;;
9563;SDS011;4820;50.870;4.702;2024-01-10T03:16:59;8.07;;;5.30;;
9563;SDS011;4820;50.870;4.702;2024-01-10T03:19:25;8.13;;;4.37;;
9563;SDS011;4820;50.870;4.702;2024-01-10T03:21:50;5.77;;;4.30;;
9563;SDS011;4820;50.870;4.702;2024-01-10T03:24:16;8.23;;;4.70;;
9563;SDS011;4820;50.870;4.702;2024-01-10T03:26:42;7.07;;;5.03;;
9563;SDS011;4820;50.870;4.702;2024-01-10T03:29:08;7.47;;;4.80;;
9563;SDS011;4820;50.870;4.702;2024-01-10T03:31:34;7.43;;;4.97;;
9563;SDS011;4820;50.870;4.702;2024-01-10T03:34:00;7.63;;;5.03;;
9563;SDS011;4820;50.870;4.702;2024-01-10T03:36:25;7.73;;;5.10;;
9563;SDS011;4820;50.870;4.702;2024-01-10T03:38:51;7.10;;;5.23;;
9563;SDS011;4820;50.870;4.702;2024-01-10T03:41:18;7.27;;;5.17;;
9563;SDS011;4820;50.870;4.702;2024-01-10T03:43:44;6.50;;;4.63;;
9563;SDS011;4820;50.870;4.702;2024-01-10T03:46:10;6.90;;;4.70;;
9563;SDS011;4820;50.870;4.702;2024-01-10T03:48:37;9.00;;;5.03;;
9563;SDS011;4820;50.870;4.702;2024-01-10T03:51:05;7.20;;;4.90;;
9563;SDS011;4820;50.870;4.702;2024-01-10T03:53:31;8.23;;;4.83;;
9563;SDS011;4820;50.870;4.702;2024-01-10T03:55:57;6.83;;;4.77;;
9563;SDS011;4820;50.870;4.702;2024-01-10T03:58:23;7.97;;;4.70;;
9563;SDS011;4820;50.870;4.702;2024-01-10T04:00:49;5.73;;;4.07;;
9563;SDS011;4820;50.870;4.702;2024-01-10T04:03:14;7.30;;;5.00;;
9563;SDS011;4820;50.870;4.702;2024-01-10T04:05:41;7.20;;;4.90;;
9563;SDS011;4820;50.870;4.702;2024-01-10T04:08:07;7.53;;;5.40;;
9563;SDS011;4820;50.870;4.702;2024-01-10T04:10:33;6.83;;;4.47;;
9563;SDS011;4820;50.870;4.702;2024-01-10T04:12:58;7.27;;;4.97;;
9563;SDS011;4820;50.870;4.702;2024-01-10T04:15:24;6.73;;;4.77;;
9563;SDS011;4820;50.870;4.702;2024-01-10T04:17:50;6.37;;;4.67;;
9563;SDS011;4820;50.870;4.702;2024-01-10T04:20:16;8.90;;;4.90;;
9563;SDS011;4820;50.870;4.702;2024-01-10T04:22:41;6.70;;;4.57;;
9563;SDS011;4820;50.870;4.702;2024-01-10T04:25:07;6.00;;;4.70;;
9563;SDS011;4820;50.870;4.702;2024-01-10T04:27:33;7.30;;;4.93;;
9563;SDS011;4820;50.870;4.702;2024-01-10T04:29:59;8.57;;;5.40;;
9563;SDS011;4820;50.870;4.702;2024-01-10T04:32:25;6.40;;;4.80;;
9563;SDS011;4820;50.870;4.702;2024-01-10T04:34:50;7.60;;;4.90;;
9563;SDS011;4820;50.870;4.702;2024-01-10T04:37:16;7.10;;;4.83;;
9563;SDS011;4820;50.870;4.702;2024-01-10T04:39:43;6.00;;;4.63;;
9563;SDS011;4820;50.870;4.702;2024-01-10T04:42:10;8.67;;;4.60;;
9563;SDS011;4820;50.870;4.702;2024-01-10T04:44:36;9.97;;;5.40;;
9563;SDS011;4820;50.870;4.702;2024-01-10T04:47:02;6.67;;;4.87;;
9563;SDS011;4820;50.870;4.702;2024-01-10T04:49:28;10.07;;;4.80;;
9563;SDS011;4820;50.870;4.702;2024-01-10T04:51:54;7.90;;;5.33;;
9563;SDS011;4820;50.870;4.702;2024-01-10T04:54:20;6.83;;;5.00;;
9563;SDS011;4820;50.870;4.702;2024-01-10T04:56:46;9.20;;;5.07;;
9563;SDS011;4820;50.870;4.702;2024-01-10T04:59:12;6.77;;;5.27;;
9563;SDS011;4820;50.870;4.702;2024-01-10T05:01:37;8.07;;;5.07;;
9563;SDS011;4820;50.870;4.702;2024-01-10T05:04:03;7.23;;;4.80;;
9563;SDS011;4820;50.870;4.702;2024-01-10T05:06:29;7.93;;;5.30;;
9563;SDS011;4820;50.870;4.702;2024-01-10T05:08:55;7.00;;;4.97;;
9563;SDS011;4820;50.870;4.702;2024-01-10T05:11:23;9.87;;;5.33;;
9563;SDS011;4820;50.870;4.702;2024-01-10T05:13:53;7.97;;;4.93;;
9563;SDS011;4820;50.870;4.702;2024-01-10T05:16:18;7.10;;;5.17;;
9563;SDS011;4820;50.870;4.702;2024-01-10T05:18:44;6.90;;;4.70;;
9563;SDS011;4820;50.870;4.702;2024-01-10T05:21:10;7.50;;;4.87;;
9563;SDS011;4820;50.870;4.702;2024-01-10T05:23:36;7.37;;;5.00;;
9563;SDS011;4820;50.870;4.702;2024-01-10T05:26:04;6.93;;;5.00;;
9563;SDS011;4820;50.870;4.702;2024-01-10T05:28:30;6.67;;;5.13;;
9563;SDS011;4820;50.870;4.702;2024-01-10T05:30:56;7.00;;;4.87;;
9563;SDS011;4820;50.870;4.702;2024-01-10T05:33:22;7.37;;;5.23;;
9563;SDS011;4820;50.870;4.702;2024-01-10T05:35:47;8.73;;;5.23;;
9563;SDS011;4820;50.870;4.702;2024-01-10T05:38:13;8.23;;;5.03;;
9563;SDS011;4820;50.870;4.702;2024-01-10T05:40:39;7.13;;;4.80;;
9563;SDS011;4820;50.870;4.702;2024-01-10T05:43:05;8.03;;;5.20;;
9563;SDS011;4820;50.870;4.702;2024-01-10T05:45:32;7.93;;;5.00;;
9563;SDS011;4820;50.870;4.702;2024-01-10T05:47:58;7.33;;;4.70;;
9563;SDS011;4820;50.870;4.702;2024-01-10T05:50:24;7.77;;;5.20;;
9563;SDS011;4820;50.870;4.702;2024-01-10T05:52:49;8.17;;;4.90;;
9563;SDS011;4820;50.870;4.702;2024-01-10T05:55:15;7.20;;;5.00;;
9563;SDS011;4820;50.870;4.702;2024-01-10T05:57:41;7.00;;;4.60;;
9563;SDS011;4820;50.870;4.702;2024-01-10T06:00:07;6.20;;;4.40;;
9563;SDS011;4820;50.870;4.702;2024-01-10T06:02:36;8.70;;;5.70;;
9563;SDS011;4820;50.870;4.702;2024-01-10T06:05:11;7.87;;;5.33;;
9563;SDS011;4820;50.870;4.702;2024-01-10T06:07:37;9.23;;;5.10;;
9563;SDS011;4820;50.870;4.702;2024-01-10T06:10:04;6.83;;;4.77;;
9563;SDS011;4820;50.870;4.702;2024-01-10T06:12:30;5.83;;;4.60;;
9563;SDS011;4820;50.870;4.702;2024-01-10T06:14:56;7.50;;;5.00;;
9563;SDS011;4820;50.870;4.702;2024-01-10T06:17:22;9.50;;;4.90;;
9563;SDS011;4820;50.870;4.702;2024-01-10T06:19:49;10.17;;;5.23;;
9563;SDS011;4820;50.870;4.702;2024-01-10T06:22:15;7.97;;;4.90;;
9563;SDS011;4820;50.870;4.702;2024-01-10T06:24:41;8.17;;;4.80;;
9563;SDS011;4820;50.870;4.702;2024-01-10T06:27:08;7.47;;;4.60;;
9563;SDS011;4820;50.870;4.702;2024-01-10T06:29:35;7.17;;;5.00;;
9563;SDS011;4820;50.870;4.702;2024-01-10T06:32:01;7.63;;;4.90;;
9563;SDS011;4820;50.870;4.702;2024-01-10T06:34:31;7.90;;;5.27;;
9563;SDS011;4820;50.870;4.702;2024-01-10T06:36:58;7.03;;;5.00;;
9563;SDS011;4820;50.870;4.702;2024-01-10T06:39:24;7.10;;;4.87;;
9563;SDS011;4820;50.870;4.702;2024-01-10T06:41:50;9.10;;;5.17;;
9563;SDS011;4820;50.870;4.702;2024-01-10T06:44:16;9.97;;;5.50;;
9563;SDS011;4820;50.870;4.702;2024-01-10T06:46:44;8.77;;;4.97;;
9563;SDS011;4820;50.870;4.702;2024-01-10T06:49:10;7.93;;;4.73;;
9563;SDS011;4820;50.870;4.702;2024-01-10T06:51:36;7.83;;;4.80;;
9563;SDS011;4820;50.870;4.702;2024-01-10T06:54:03;7.47;;;5.13;;
9563;SDS011;4820;50.870;4.702;2024-01-10T06:56:30;7.43;;;4.70;;
9563;SDS011;4820;50.870;4.702;2024-01-10T06:58:57;7.33;;;4.80;;
9563;SDS011;4820;50.870;4.702;2024-01-10T07:01:26;6.10;;;4.57;;
9563;SDS011;4820;50.870;4.702;2024-01-10T07:03:52;6.97;;;4.90;;
9563;SDS011;4820;50.870;4.702;2024-01-10T07:06:22;7.27;;;5.00;;
9563;SDS011;4820;50.870;4.702;2024-01-10T07:08:49;9.53;;;4.90;;
9563;SDS011;4820;50.870;4.702;2024-01-10T07:11:16;6.73;;;4.60;;
9563;SDS011;4820;50.870;4.702;2024-01-10T07:13:42;6.97;;;4.90;;
9563;SDS011;4820;50.870;4.702;2024-01-10T07:16:08;8.57;;;4.97;;
9563;SDS011;4820;50.870;4.702;2024-01-10T07:18:35;11.57;;;5.23;;
9563;SDS011;4820;50.870;4.702;2024-01-10T07:21:01;7.37;;;4.87;;
9563;SDS011;4820;50.870;4.702;2024-01-10T07:23:26;6.87;;;4.53;;
9563;SDS011;4820;50.870;4.702;2024-01-10T07:25:52;6.60;;;4.97;;
9563;SDS011;4820;50.870;4.702;2024-01-10T07:28:18;10.57;;;9.00;;
9563;SDS011;4820;50.870;4.702;2024-01-10T07:30:44;6.90;;;4.83;;
9563;SDS011;4820;50.870;4.702;2024-01-10T07:33:10;8.57;;;5.03;;
9563;SDS011;4820;50.870;4.702;2024-01-10T07:35:36;7.53;;;5.17;;
9563;SDS011;4820;50.870;4.702;2024-01-10T07:38:03;7.17;;;5.00;;
9563;SDS011;4820;50.870;4.702;2024-01-10T07:40:29;7.50;;;5.20;;
9563;SDS011;4820;50.870;4.702;2024-01-10T07:42:55;9.03;;;5.00;;
9563;SDS011;4820;50.870;4.702;2024-01-10T07:45:21;6.60;;;4.50;;
9563;SDS011;4820;50.870;4.702;2024-01-10T07:47:47;7.60;;;4.43;;
9563;SDS011;4820;50.870;4.702;2024-01-10T07:50:13;8.53;;;5.00;;
9563;SDS011;4820;50.870;4.702;2024-01-10T07:52:39;7.27;;;5.03;;
9563;SDS011;4820;50.870;4.702;2024-01-10T07:55:06;10.73;;;5.40;;
9563;SDS011;4820;50.870;4.702;2024-01-10T07:57:33;8.07;;;4.87;;
9563;SDS011;4820;50.870;4.702;2024-01-10T07:59:59;8.93;;;5.40;;
9563;SDS011;4820;50.870;4.702;2024-01-10T08:02:25;8.97;;;4.77;;
9563;SDS011;4820;50.870;4.702;2024-01-10T08:04:51;8.50;;;5.33;;
9563;SDS011;4820;50.870;4.702;2024-01-10T08:07:17;8.50;;;5.60;;
9563;SDS011;4820;50.870;4.702;2024-01-10T08:09:43;7.37;;;4.77;;
9563;SDS011;4820;50.870;4.702;2024-01-10T08:12:08;9.57;;;5.50;;
9563;SDS011;4820;50.870;4.702;2024-01-10T08:14:34;7.00;;;4.70;;
9563;SDS011;4820;50.870;4.702;2024-01-10T08:17:00;6.67;;;4.53;;
9563;SDS011;4820;50.870;4.702;2024-01-10T08:19:26;8.77;;;5.57;;
9563;SDS011;4820;50.870;4.702;2024-01-10T08:21:52;10.90;;;5.63;;
9563;SDS011;4820;50.870;4.702;2024-01-10T08:24:21;7.73;;;5.03;;
9563;SDS011;4820;50.870;4.702;2024-01-10T08:26:47;9.03;;;5.77;;
9563;SDS011;4820;50.870;4.702;2024-01-10T08:29:20;10.57;;;5.53;;
9563;SDS011;4820;50.870;4.702;2024-01-10T08:31:47;10.43;;;5.63;;
9563;SDS011;4820;50.870;4.702;2024-01-10T08:34:13;9.13;;;5.77;;
9563;SDS011;4820;50.870;4.702;2024-01-10T08:36:39;9.10;;;5.10;;
9563;SDS011;4820;50.870;4.702;2024-01-10T08:39:05;9.80;;;5.90;;
9563;SDS011;4820;50.870;4.702;2024-01-10T08:41:31;9.93;;;5.63;;
9563;SDS011;4820;50.870;4.702;2024-01-10T08:43:58;9.57;;;5.33;;
9563;SDS011;4820;50.870;4.702;2024-01-10T08:46:23;9.77;;;5.47;;
9563;SDS011;4820;50.870;4.702;2024-01-10T08:48:51;8.73;;;5.50;;
9563;SDS011;4820;50.870;4.702;2024-01-10T08:51:17;7.63;;;5.17;;
9563;SDS011;4820;50.870;4.702;2024-01-10T08:53:43;8.90;;;5.30;;
9563;SDS011;4820;50.870;4.702;2024-01-10T08:56:09;8.13;;;5.33;;
9563;SDS011;4820;50.870;4.702;2024-01-10T08:58:35;7.93;;;5.37;;
9563;SDS011;4820;50.870;4.702;2024-01-10T09:01:01;10.47;;;5.23;;
9563;SDS011;4820;50.870;4.702;2024-01-10T09:03:29;7.87;;;5.13;;
9563;SDS011;4820;50.870;4.702;2024-01-10T09:05:55;9.20;;;5.57;;
9563;SDS011;4820;50.870;4.702;2024-01-10T09:08:21;8.37;;;5.10;;
9563;SDS011;4820;50.870;4.702;2024-01-10T09:10:47;6.90;;;5.20;;
9563;SDS011;4820;50.870;4.702;2024-01-10T09:13:14;8.03;;;5.40;;
9563;SDS011;4820;50.870;4.702;2024-01-10T09:15:40;10.30;;;5.70;;
9563;SDS011;4820;50.870;4.702;2024-01-10T09:18:06;9.33;;;6.00;;
9563;SDS011;4820;50.870;4.702;2024-01-10T09:20:32;8.77;;;5.50;;
9563;SDS011;4820;50.870;4.702;2024-01-10T09:22:58;8.70;;;5.93;;
9563;SDS011;4820;50.870;4.702;2024-01-10T09:25:25;7.60;;;5.20;;
9563;SDS011;4820;50.870;4.702;2024-01-10T09:27:51;9.27;;;5.83;;
9563;SDS011;4820;50.870;4.702;2024-01-10T09:30:16;9.60;;;6.13;;
9563;SDS011;4820;50.870;4.702;2024-01-10T09:32:43;8.33;;;5.50;;
9563;SDS011;4820;50.870;4.702;2024-01-10T09:35:09;7.40;;;5.53;;
9563;SDS011;4820;50.870;4.702;2024-01-10T09:37:35;8.53;;;5.60;;
9563;SDS011;4820;50.870;4.702;2024-01-10T09:40:01;8.80;;;5.87;;
9563;SDS011;4820;50.870;4.702;2024-01-10T09:42:27;9.80;;;5.80;;
9563;SDS011;4820;50.870;4.702;2024-01-10T09:44:56;8.43;;;5.63;;
9563;SDS011;4820;50.870;4.702;2024-01-10T09:47:23;9.33;;;6.00;;
9563;SDS011;4820;50.870;4.702;2024-01-10T09:49:50;10.60;;;6.27;;
9563;SDS011;4820;50.870;4.702;2024-01-10T09:52:20;10.53;;;6.13;;
9563;SDS011;4820;50.870;4.702;2024-01-10T09:54:51;10.67;;;5.80;;
9563;SDS011;4820;50.870;4.702;2024-01-10T09:57:21;9.20;;;5.53;;
9563;SDS011;4820;50.870;4.702;2024-01-10T09:59:51;9.37;;;5.83;;
9563;SDS011;4820;50.870;4.702;2024-01-10T10:02:17;8.90;;;6.13;;
9563;SDS011;4820;50.870;4.702;2024-01-10T10:05:03;8.47;;;6.07;;
9563;SDS011;4820;50.870;4.702;2024-01-10T10:10:28;10.40;;;6.13;;
9563;SDS011;4820;50.870;4.702;2024-01-10T10:12:54;8.20;;;5.60;;
9563;SDS011;4820;50.870;4.702;2024-01-10T10:15:20;9.07;;;5.80;;
9563;SDS011;4820;50.870;4.702;2024-01-10T10:17:50;10.00;;;6.40;;
9563;SDS011;4820;50.870;4.702;2024-01-10T10:20:22;9.80;;;6.33;;
9563;SDS011;4820;50.870;4.702;2024-01-10T10:23:05;8.80;;;6.53;;
9563;SDS011;4820;50.870;4.702;2024-01-10T10:27:58;10.37;;;6.03;;
9563;SDS011;4820;50.870;4.702;2024-01-10T10:30:25;8.50;;;6.23;;
9563;SDS011;4820;50.870;4.702;2024-01-10T10:32:51;7.83;;;5.70;;
9563;SDS011;4820;50.870;4.702;2024-01-10T10:35:20;9.60;;;6.40;;
9563;SDS011;4820;50.870;4.702;2024-01-10T10:37:47;8.27;;;5.83;;
9563;SDS011;4820;50.870;4.702;2024-01-10T10:40:14;8.80;;;6.50;;
9563;SDS011;4820;50.870;4.702;2024-01-10T10:42:41;8.47;;;6.53;;
9563;SDS011;4820;50.870;4.702;2024-01-10T10:45:12;9.40;;;6.33;;
9563;SDS011;4820;50.870;4.702;2024-01-10T10:47:41;9.43;;;6.27;;
9563;SDS011;4820;50.870;4.702;2024-01-10T10:50:21;9.57;;;6.63;;
9563;SDS011;4820;50.870;4.702;2024-01-10T10:52:48;7.87;;;6.17;;
9563;SDS011;4820;50.870;4.702;2024-01-10T10:55:20;8.90;;;6.07;;
9563;SDS011;4820;50.870;4.702;2024-01-10T10:57:49;9.10;;;6.50;;
9563;SDS011;4820;50.870;4.702;2024-01-10T11:00:20;10.30;;;6.60;;
9563;SDS011;4820;50.870;4.702;2024-01-10T11:02:51;10.23;;;6.23;;
9563;SDS011;4820;50.870;4.702;2024-01-10T11:05:20;11.60;;;6.63;;
9563;SDS011;4820;50.870;4.702;2024-01-10T11:07:46;9.43;;;6.30;;
9563;SDS011;4820;50.870;4.702;2024-01-10T11:10:20;8.03;;;6.07;;
9563;SDS011;4820;50.870;4.702;2024-01-10T11:13:00;9.47;;;6.73;;
9563;SDS011;4820;50.870;4.702;2024-01-10T11:23:51;10.10;;;6.93;;
9563;SDS011;4820;50.870;4.702;2024-01-10T11:26:28;10.17;;;6.63;;
9563;SDS011;4820;50.870;4.702;2024-01-10T11:28:54;9.40;;;6.60;;
9563;SDS011;4820;50.870;4.702;2024-01-10T11:31:29;9.73;;;6.60;;
9563;SDS011;4820;50.870;4.702;2024-01-10T11:33:57;10.60;;;7.17;;
9563;SDS011;4820;50.870;4.702;2024-01-10T11:36:23;18.90;;;7.17;;
9563;SDS011;4820;50.870;4.702;2024-01-10T11:41:22;10.30;;;6.90;;
9563;SDS011;4820;50.870;4.702;2024-01-10T11:46:40;9.83;;;6.90;;
9563;SDS011;4820;50.870;4.702;2024-01-10T11:49:07;9.90;;;6.70;;
9563;SDS011;4820;50.870;4.702;2024-01-10T11:51:35;10.43;;;6.57;;
9563;SDS011;4820;50.870;4.702;2024-01-10T11:54:01;9.73;;;6.50;;
9563;SDS011;4820;50.870;4.702;2024-01-10T11:56:37;12.13;;;6.93;;
9563;SDS011;4820;50.870;4.702;2024-01-10T11:59:07;9.47;;;6.77;;
9563;SDS011;4820;50.870;4.702;2024-01-10T12:01:35;10.60;;;7.00;;
9563;SDS011;4820;50.870;4.702;2024-01-10T12:04:05;10.43;;;6.97;;
9563;SDS011;4820;50.870;4.702;2024-01-10T12:06:31;10.30;;;6.60;;
9563;SDS011;4820;50.870;4.702;2024-01-10T12:08:57;10.43;;;6.63;;
9563;SDS011;4820;50.870;4.702;2024-01-10T12:11:24;10.27;;;6.97;;
9563;SDS011;4820;50.870;4.702;2024-01-10T12:13:50;9.47;;;6.83;;
9563;SDS011;4820;50.870;4.702;2024-01-10T12:16:16;9.67;;;6.77;;
9563;SDS011;4820;50.870;4.702;2024-01-10T12:18:43;9.37;;;6.87;;
9563;SDS011;4820;50.870;4.702;2024-01-10T12:21:09;10.10;;;7.23;;
9563;SDS011;4820;50.870;4.702;2024-01-10T12:23:38;10.23;;;7.00;;
9563;SDS011;4820;50.870;4.702;2024-01-10T12:26:08;9.87;;;7.03;;
9563;SDS011;4820;50.870;4.702;2024-01-10T12:28:37;11.30;;;7.00;;
9563;SDS011;4820;50.870;4.702;2024-01-10T12:31:04;11.50;;;7.37;;
9563;SDS011;4820;50.870;4.702;2024-01-10T12:33:32;11.87;;;7.10;;
9563;SDS011;4820;50.870;4.702;2024-01-10T12:36:08;11.73;;;6.73;;
9563;SDS011;4820;50.870;4.702;2024-01-10T12:38:38;9.47;;;6.67;;
9563;SDS011;4820;50.870;4.702;2024-01-10T12:41:04;10.67;;;7.30;;
9563;SDS011;4820;50.870;4.702;2024-01-10T12:43:31;11.87;;;7.07;;
9563;SDS011;4820;50.870;4.702;2024-01-10T12:46:03;11.63;;;7.20;;
9563;SDS011;4820;50.870;4.702;2024-01-10T12:48:32;9.87;;;7.00;;
9563;SDS011;4820;50.870;4.702;2024-01-10T12:51:01;11.67;;;6.93;;
9563;SDS011;4820;50.870;4.702;2024-01-10T12:53:31;10.70;;;7.70;;
9563;SDS011;4820;50.870;4.702;2024-01-10T12:56:01;10.00;;;6.83;;
9563;SDS011;4820;50.870;4.702;2024-01-10T12:58:27;10.37;;;7.33;;
9563;SDS011;4820;50.870;4.702;2024-01-10T13:00:54;10.57;;;7.23;;
9563;SDS011;4820;50.870;4.702;2024-01-10T13:03:20;9.87;;;7.17;;
9563;SDS011;4820;50.870;4.702;2024-01-10T13:05:46;11.33;;;7.43;;
9563;SDS011;4820;50.870;4.702;2024-01-10T13:08:12;10.43;;;7.17;;
9563;SDS011;4820;50.870;4.702;2024-01-10T13:10:38;11.07;;;7.70;;
9563;SDS011;4820;50.870;4.702;2024-01-10T13:13:04;10.20;;;7.33;;
9563;SDS011;4820;50.870;4.702;2024-01-10T13:15:30;11.43;;;7.50;;
9563;SDS011;4820;50.870;4.702;2024-01-10T13:17:56;13.07;;;7.87;;
9563;SDS011;4820;50.870;4.702;2024-01-10T13:20:23;12.23;;;7.27;;
9563;SDS011;4820;50.870;4.702;2024-01-10T13:22:49;11.03;;;8.03;;
9563;SDS011;4820;50.870;4.702;2024-01-10T13:25:16;10.47;;;7.57;;
9563;SDS011;4820;50.870;4.702;2024-01-10T13:27:42;9.60;;;7.47;;
9563;SDS011;4820;50.870;4.702;2024-01-10T13:30:08;11.83;;;7.73;;
9563;SDS011;4820;50.870;4.702;2024-01-10T13:32:36;11.70;;;7.43;;
9563;SDS011;4820;50.870;4.702;2024-01-10T13:35:03;11.93;;;7.80;;
9563;SDS011;4820;50.870;4.702;2024-01-10T13:37:29;11.10;;;7.60;;
9563;SDS011;4820;50.870;4.702;2024-01-10T13:39:56;11.00;;;7.93;;
9563;SDS011;4820;50.870;4.702;2024-01-10T13:42:22;8.97;;;7.10;;
9563;SDS011;4820;50.870;4.702;2024-01-10T13:44:48;10.73;;;7.50;;
9563;SDS011;4820;50.870;4.702;2024-01-10T13:47:15;11.10;;;7.70;;
9563;SDS011;4820;50.870;4.702;2024-01-10T13:49:43;11.30;;;7.57;;
9563;SDS011;4820;50.870;4.702;2024-01-10T13:52:08;10.37;;;7.80;;
9563;SDS011;4820;50.870;4.702;2024-01-10T13:54:34;11.13;;;7.67;;
9563;SDS011;4820;50.870;4.702;2024-01-10T13:57:01;11.30;;;7.80;;
9563;SDS011;4820;50.870;4.702;2024-01-10T13:59:28;12.07;;;7.83;;
9563;SDS011;4820;50.870;4.702;2024-01-10T14:01:53;10.30;;;7.07;;
9563;SDS011;4820;50.870;4.702;2024-01-10T14:04:20;11.50;;;7.77;;
9563;SDS011;4820;50.870;4.702;2024-01-10T14:06:47;10.37;;;7.40;;
9563;SDS011;4820;50.870;4.702;2024-01-10T14:09:13;15.10;;;8.23;;
9563;SDS011;4820;50.870;4.702;2024-01-10T14:11:39;10.90;;;7.63;;
9563;SDS011;4820;50.870;4.702;2024-01-10T14:14:05;11.33;;;7.50;;
9563;SDS011;4820;50.870;4.702;2024-01-10T14:16:30;10.33;;;7.93;;
9563;SDS011;4820;50.870;4.702;2024-01-10T14:18:56;13.47;;;9.07;;
9563;SDS011;4820;50.870;4.702;2024-01-10T14:21:22;11.13;;;7.73;;
9563;SDS011;4820;50.870;4.702;2024-01-10T14:23:48;11.00;;;7.50;;
9563;SDS011;4820;50.870;4.702;2024-01-10T14:26:14;12.30;;;8.10;;
9563;SDS011;4820;50.870;4.702;2024-01-10T14:28:40;11.80;;;7.80;;
9563;SDS011;4820;50.870;4.702;2024-01-10T14:31:06;10.83;;;7.70;;
9563;SDS011;4820;50.870;4.702;2024-01-10T14:33:32;10.13;;;7.40;;
9563;SDS011;4820;50.870;4.702;2024-01-10T14:36:00;10.63;;;7.67;;
9563;SDS011;4820;50.870;4.702;2024-01-10T14:38:26;10.10;;;7.27;;
9563;SDS011;4820;50.870;4.702;2024-01-10T14:40:52;13.47;;;8.07;;
9563;SDS011;4820;50.870;4.702;2024-01-10T14:43:17;11.50;;;8.10;;
9563;SDS011;4820;50.870;4.702;2024-01-10T14:45:43;10.20;;;7.50;;
9563;SDS011;4820;50.870;4.702;2024-01-10T14:48:09;10.97;;;7.40;;
9563;SDS011;4820;50.870;4.702;2024-01-10T14:50:35;10.23;;;7.20;;
9563;SDS011;4820;50.870;4.702;2024-01-10T14:53:01;10.80;;;7.33;;
9563;SDS011;4820;50.870;4.702;2024-01-10T14:55:27;11.33;;;7.77;;
9563;SDS011;4820;50.870;4.702;2024-01-10T14:57:54;11.93;;;7.80;;
9563;SDS011;4820;50.870;4.702;2024-01-10T15:00:20;11.40;;;7.93;;
9563;SDS011;4820;50.870;4.702;2024-01-10T15:02:45;11.17;;;7.23;;
9563;SDS011;4820;50.870;4.702;2024-01-10T15:05:11;11.97;;;8.53;;
9563;SDS011;4820;50.870;4.702;2024-01-10T15:07:37;15.43;;;8.20;;
9563;SDS011;4820;50.870;4.702;2024-01-10T15:10:03;13.00;;;8.57;;
9563;SDS011;4820;50.870;4.702;2024-01-10T15:12:29;10.67;;;7.47;;
9563;SDS011;4820;50.870;4.702;2024-01-10T15:14:55;11.47;;;7.77;;
9563;SDS011;4820;50.870;4.702;2024-01-10T15:17:25;13.37;;;7.77;;
9563;SDS011;4820;50.870;4.702;2024-01-10T15:19:53;12.23;;;8.47;;
9563;SDS011;4820;50.870;4.702;2024-01-10T15:22:19;10.93;;;7.53;;
9563;SDS011;4820;50.870;4.702;2024-01-10T15:24:45;11.47;;;7.83;;
9563;SDS011;4820;50.870;4.702;2024-01-10T15:27:10;12.17;;;7.40;;
9563;SDS011;4820;50.870;4.702;2024-01-10T15:29:39;11.67;;;8.43;;